LGRP/RHO METAR and TAF weather

Enter ICAO airport designator
Station Type Date Time Source
LGRP METAR 2020/09/20 06:50 UTC NOAA

LGRP 200650Z 24005KT 9999 FEW018 27/22 Q1008 NOSIG


Station Type Date Time Source
LGRP Decoded METAR 2020/09/20 06:50 UTC NOAA

Rhodes Airport , Greece (LGRP) 36-24N 028-05E 11M
Sep 20, 2020 - 02:50 AM EDT / 2020.09.20 0650 UTC
Wind: from the WSW (240 degrees) at 6 MPH (5 KT):0
Visibility: greater than 7 mile(s):0
Sky conditions: mostly clear
Temperature: 80 F (27 C)
Dew Point: 71 F (22 C)
Relative Humidity: 74%
Pressure (altimeter): 29.77 in. Hg (1008 hPa)
ob: LGRP 200650Z 24005KT 9999 FEW018 27/22 Q1008 NOSIG
cycle: 7

Station Type Date Time Source
LGRP TAF 2020/09/20 06:14 UTC NOAA

TAF LGRP 200500Z 2006/2106 22007KT 9999 FEW018 SCT050
BECMG 2010/2012 25017KT

Example: see airport list